Time;durP1;ratioP1;P1;durP2;ratioP2;P2;SDS_P1;SDS_P2;PMS_P1;PMS_P2;Temp;Humidity;BMP_temperature;BMP_pressure;BME280_temperature;BME280_humidity;BME280_pressure;Samples;Min_cycle;Max_cycle;Signal;HPM_P1;HPM_P2
2023/04/15 00:00:00;;;;;;;23.15;14.70;;;;;;;2.90;78.70;92651.28;517520;28;863;-49
2023/04/15 00:00:16;;;;;;;22.97;14.67;;;;;;;2.89;79.13;92647.09;517573;28;866;-50
2023/04/15 00:00:32;;;;;;;21.05;13.73;;;;;;;2.64;79.16;92618.47;517677;28;857;-50
2023/04/15 00:00:49;;;;;;;20.83;13.57;;;;;;;2.83;78.73;92653.88;515714;28;896;-50
2023/04/15 00:01:05;;;;;;;20.08;13.25;;;;;;;2.81;79.07;92648.22;517403;28;853;-49
2023/04/15 00:01:21;;;;;;;20.87;12.77;;;;;;;2.81;79.43;92646.22;518579;28;1242;-50
2023/04/15 00:01:36;;;;;;;18.65;11.75;;;;;;;2.86;79.07;92656.28;518501;28;1604;-50
2023/04/15 00:01:52;;;;;;;17.35;11.35;;;;;;;2.89;78.79;92651.81;518882;28;1300;-49
2023/04/15 00:02:17;;;;;;;19.17;11.87;;;;;;;2.83;79.06;92637.53;517822;28;1473;-49
2023/04/15 00:02:32;;;;;;;22.30;11.77;;;;;;;2.95;78.71;92652.44;515684;28;1250;-49
2023/04/15 00:02:48;;;;;;;16.30;10.33;;;;;;;2.94;78.77;92656.44;518453;28;1256;-50
2023/04/15 00:03:04;;;;;;;14.53;9.47;;;;;;;2.95;78.88;92655.91;517615;28;1442;-49
2023/04/15 00:03:20;;;;;;;14.90;10.15;;;;;;;2.94;78.87;92657.19;517789;28;1179;-50
2023/04/15 00:03:35;;;;;;;14.30;10.53;;;;;;;2.87;78.62;92660.50;517732;28;904;-48
2023/04/15 00:03:51;;;;;;;15.13;10.30;;;;;;;2.75;79.03;92640.09;517662;28;864;-50
2023/04/15 00:04:07;;;;;;;14.75;9.98;;;;;;;2.89;78.62;92659.97;517495;28;858;-49
2023/04/15 00:04:22;;;;;;;13.47;9.77;;;;;;;2.91;78.78;92657.47;517684;28;1089;-50
2023/04/15 00:04:37;;;;;;;13.90;9.70;;;;;;;2.82;78.45;92641.50;517686;28;805;-49
2023/04/15 00:04:53;;;;;;;14.82;8.90;;;;;;;2.97;78.37;92660.84;517594;28;1297;-50
2023/04/15 00:05:08;;;;;;;14.47;8.40;;;;;;;2.99;78.47;92664.53;515999;28;828;-50
2023/04/15 00:05:24;;;;;;;15.00;8.77;;;;;;;3.00;78.37;92657.09;517812;28;1264;-49
2023/04/15 00:05:40;;;;;;;14.97;8.83;;;;;;;2.95;78.11;92664.09;517461;28;895;-49
2023/04/15 00:05:55;;;;;;;13.48;8.80;;;;;;;2.92;78.25;92664.41;517243;28;1164;-49
2023/04/15 00:06:11;;;;;;;13.70;8.80;;;;;;;2.85;78.67;92663.00;517510;28;881;-49
2023/04/15 00:06:26;;;;;;;13.07;8.90;;;;;;;2.76;78.35;92663.38;517620;28;856;-50
2023/04/15 00:06:42;;;;;;;13.83;9.20;;;;;;;2.73;78.47;92664.41;517564;28;881;-49
2023/04/15 00:06:58;;;;;;;13.70;9.17;;;;;;;2.75;78.85;92664.63;517473;28;2009;-49
2023/04/15 00:07:13;;;;;;;11.57;8.35;;;;;;;2.73;79.20;92660.97;515576;28;856;-49
2023/04/15 00:07:29;;;;;;;11.48;7.78;;;;;;;2.79;78.70;92665.09;517562;28;1218;-49
2023/04/15 00:07:46;;;;;;;13.60;8.23;;;;;;;2.82;79.38;92664.03;517712;28;970;-48
2023/04/15 00:08:01;;;;;;;13.38;7.93;;;;;;;2.88;79.00;92666.69;517473;28;2355;-50
2023/04/15 00:08:17;;;;;;;13.88;8.30;;;;;;;2.90;78.65;92664.91;517878;28;828;-49
2023/04/15 00:08:33;;;;;;;13.30;8.93;;;;;;;2.92;78.72;92659.66;517594;28;1689;-50
2023/04/15 00:08:49;;;;;;;14.10;9.73;;;;;;;2.95;78.26;92664.09;517616;28;1177;-49
2023/04/15 00:09:04;;;;;;;17.25;11.65;;;;;;;2.91;78.47;92668.38;517715;28;1590;-49
2023/04/15 00:09:20;;;;;;;17.80;11.93;;;;;;;2.73;78.48;92669.88;517753;28;876;-49
2023/04/15 00:09:35;;;;;;;17.45;11.23;;;;;;;2.59;78.35;92673.78;516337;28;1624;-49
2023/04/15 00:09:54;;;;;;;20.30;12.87;;;;;;;2.55;79.12;92667.16;518769;28;1135;-49
2023/04/15 00:10:09;;;;;;;19.95;12.98;;;;;;;2.46;79.02;92660.09;518911;28;1103;-50
2023/04/15 00:10:25;;;;;;;16.50;10.93;;;;;;;2.30;79.48;92671.94;517660;28;1291;-50
2023/04/15 00:10:43;;;;;;;15.70;11.13;;;;;;;2.21;79.96;92666.84;518497;28;1177;-49
2023/04/15 00:11:01;;;;;;;18.88;12.30;;;;;;;2.14;80.45;92672.88;518924;28;843;-49
2023/04/15 00:11:17;;;;;;;14.82;9.70;;;;;;;2.14;80.61;92675.59;518435;28;1359;-49
2023/04/15 00:11:32;;;;;;;12.73;8.90;;;;;;;2.18;80.40;92670.59;519801;28;826;-50
2023/04/15 00:11:49;;;;;;;10.98;8.00;;;;;;;2.23;80.65;92675.25;519136;28;1118;-49
2023/04/15 00:12:04;;;;;;;9.38;6.82;;;;;;;2.28;81.30;92677.91;517735;28;850;-48
2023/04/15 00:12:20;;;;;;;9.97;6.53;;;;;;;2.33;81.21;92679.09;516918;28;915;-51
2023/04/15 00:12:36;;;;;;;8.65;5.93;;;;;;;2.31;80.84;92678.88;517761;28;854;-52
2023/04/15 00:12:51;;;;;;;7.37;5.67;;;;;;;2.21;81.18;92681.19;515930;28;827;-50
2023/04/15 00:13:07;;;;;;;7.30;5.38;;;;;;;2.20;81.24;92682.47;515759;28;810;-51
2023/04/15 00:13:22;;;;;;;7.45;5.25;;;;;;;2.17;81.25;92680.75;516511;28;1072;-49
2023/04/15 00:13:38;;;;;;;7.37;5.13;;;;;;;2.06;81.09;92680.88;517625;28;923;-50
2023/04/15 00:13:53;;;;;;;7.78;4.78;;;;;;;1.79;81.21;92640.38;517512;28;817;-49
2023/04/15 00:14:09;;;;;;;9.90;5.40;;;;;;;2.05;81.47;92673.22;515684;28;1347;-50
2023/04/15 00:14:25;;;;;;;8.75;5.28;;;;;;;2.06;81.67;92685.56;515536;28;852;-50
2023/04/15 00:14:40;;;;;;;6.80;4.68;;;;;;;2.02;81.76;92671.53;515611;28;808;-49
2023/04/15 00:14:57;;;;;;;6.13;4.40;;;;;;;2.06;81.64;92674.69;516482;28;1076;-49
2023/04/15 00:15:13;;;;;;;5.97;4.45;;;;;;;2.01;82.34;92678.22;515924;28;1257;-48
2023/04/15 00:15:28;;;;;;;8.07;5.00;;;;;;;1.99;82.44;92675.28;516966;28;1272;-50
2023/04/15 00:15:43;;;;;;;7.85;5.20;;;;;;;1.93;82.53;92674.59;515912;28;1121;-49
2023/04/15 00:16:00;;;;;;;6.93;5.17;;;;;;;1.88;82.71;92680.84;517172;28;823;-49
2023/04/15 00:16:15;;;;;;;7.53;5.10;;;;;;;1.89;83.14;92685.78;515626;28;1071;-51
2023/04/15 00:16:31;;;;;;;7.43;4.97;;;;;;;1.92;83.29;92684.75;517944;28;1246;-50
2023/04/15 00:16:48;;;;;;;7.57;5.20;;;;;;;1.97;83.47;92683.22;519580;28;864;-52
2023/04/15 00:17:04;;;;;;;6.65;4.95;;;;;;;1.92;83.24;92664.97;516451;28;852;-52
2023/04/15 00:17:19;;;;;;;6.50;4.65;;;;;;;2.06;82.80;92677.41;515249;28;867;-50
2023/04/15 00:17:37;;;;;;;8.17;5.20;;;;;;;2.14;83.19;92681.06;517081;28;1106;-49
2023/04/15 00:17:52;;;;;;;8.93;5.30;;;;;;;2.18;82.83;92682.25;517192;28;1031;-50
2023/04/15 00:18:08;;;;;;;8.17;5.40;;;;;;;2.20;82.89;92682.47;517396;28;867;-49
2023/04/15 00:18:24;;;;;;;11.32;6.18;;;;;;;2.23;82.96;92689.59;517295;28;819;-50
2023/04/15 00:18:39;;;;;;;11.10;6.38;;;;;;;2.25;82.33;92686.38;515914;28;1753;-49
2023/04/15 00:18:55;;;;;;;9.10;6.67;;;;;;;2.26;81.88;92683.13;515668;28;996;-49
2023/04/15 00:19:11;;;;;;;12.15;7.63;;;;;;;2.28;82.34;92682.59;516217;28;830;-50
2023/04/15 00:19:26;;;;;;;13.55;7.68;;;;;;;2.29;81.89;92684.09;515337;28;1544;-50
2023/04/15 00:19:43;;;;;;;10.43;6.90;;;;;;;2.29;81.77;92686.81;516390;28;1231;-52
2023/04/15 00:19:58;;;;;;;9.38;6.40;;;;;;;2.26;81.80;92682.38;516217;28;1648;-50
2023/04/15 00:20:14;;;;;;;8.87;6.17;;;;;;;2.18;82.03;92686.94;517537;28;840;-50
2023/04/15 00:20:30;;;;;;;9.05;6.10;;;;;;;2.05;81.84;92684.13;518686;28;1363;-50
2023/04/15 00:20:45;;;;;;;8.07;6.13;;;;;;;1.96;82.70;92682.47;517612;28;1189;-48
2023/04/15 00:21:01;;;;;;;9.17;6.30;;;;;;;1.90;82.87;92678.34;517486;28;828;-49
2023/04/15 00:21:17;;;;;;;9.27;6.37;;;;;;;1.93;83.31;92677.31;517517;28;972;-50
2023/04/15 00:21:32;;;;;;;7.32;5.40;;;;;;;1.94;83.04;92676.06;517407;28;813;-50
2023/04/15 00:21:48;;;;;;;7.73;5.00;;;;;;;1.98;83.13;92684.69;515827;28;1171;-51
2023/04/15 00:22:03;;;;;;;8.80;5.47;;;;;;;2.02;83.77;92682.41;517223;28;761;-49
2023/04/15 00:22:19;;;;;;;9.73;6.63;;;;;;;2.00;83.88;92674.75;517723;28;860;-50
2023/04/15 00:22:35;;;;;;;9.75;6.88;;;;;;;2.10;83.67;92688.78;517661;28;859;-50
2023/04/15 00:22:50;;;;;;;8.60;6.10;;;;;;;2.11;83.31;92682.81;519621;28;1383;-49
2023/04/15 00:23:06;;;;;;;7.70;5.43;;;;;;;2.13;83.06;92687.72;516255;28;765;-49
2023/04/15 00:23:21;;;;;;;7.22;5.10;;;;;;;2.15;83.50;92680.53;515477;28;1506;-50
2023/04/15 00:23:37;;;;;;;7.87;4.63;;;;;;;2.18;83.20;92686.94;517561;28;1302;-49
2023/04/15 00:23:52;;;;;;;8.30;3.90;;;;;;;2.19;83.38;92691.88;519504;28;1108;-49
2023/04/15 00:24:07;;;;;;;8.87;3.83;;;;;;;2.21;83.44;92686.63;517005;28;983;-50
2023/04/15 00:24:23;;;;;;;7.30;3.78;;;;;;;2.24;83.34;92691.06;519431;28;871;-52
2023/04/15 00:24:38;;;;;;;5.63;3.87;;;;;;;2.01;83.21;92651.00;518082;28;914;-51
2023/04/15 00:24:54;;;;;;;6.07;3.73;;;;;;;2.15;83.17;92677.06;517596;28;1130;-50
2023/04/15 00:25:09;;;;;;;5.82;3.55;;;;;;;2.20;83.54;92685.19;517210;28;766;-50
2023/04/15 00:25:25;;;;;;;5.40;3.70;;;;;;;2.18;83.82;92686.94;517725;28;765;-49
2023/04/15 00:25:40;;;;;;;6.38;3.97;;;;;;;1.94;83.73;92652.31;517672;28;1071;-52
2023/04/15 00:25:56;;;;;;;6.40;3.90;;;;;;;2.12;84.02;92678.09;517432;28;844;-49
2023/04/15 00:26:12;;;;;;;5.72;3.97;;;;;;;2.09;84.11;92684.56;515619;28;844;-51
2023/04/15 00:26:27;;;;;;;6.25;4.15;;;;;;;2.04;84.36;92682.63;517233;28;1116;-52
2023/04/15 00:26:42;;;;;;;6.47;4.60;;;;;;;2.00;84.29;92685.66;517760;28;843;-50
2023/04/15 00:26:58;;;;;;;6.18;4.90;;;;;;;1.99;85.20;92678.00;517562;28;1988;-52
2023/04/15 00:27:14;;;;;;;5.65;4.60;;;;;;;1.97;85.23;92677.78;516781;28;868;-52
2023/04/15 00:27:29;;;;;;;6.17;4.60;;;;;;;2.06;85.24;92682.84;515680;28;883;-52
2023/04/15 00:27:45;;;;;;;6.15;4.53;;;;;;;2.12;85.28;92689.00;516460;28;922;-50
2023/04/15 00:28:00;;;;;;;6.67;4.50;;;;;;;2.10;85.34;92684.03;517612;28;1302;-51
2023/04/15 00:28:16;;;;;;;6.83;4.40;;;;;;;2.15;85.77;92685.22;517719;28;850;-51
2023/04/15 00:28:32;;;;;;;6.60;4.15;;;;;;;2.18;86.11;92692.38;517703;28;797;-52
2023/04/15 00:28:47;;;;;;;7.47;4.55;;;;;;;2.22;85.80;92695.56;517748;28;999;-51
2023/04/15 00:29:03;;;;;;;6.88;4.50;;;;;;;2.24;85.62;92693.78;517465;28;1195;-51
2023/04/15 00:29:19;;;;;;;5.27;3.83;;;;;;;2.05;85.99;92657.63;517105;28;1086;-52
2023/04/15 00:29:34;;;;;;;5.90;4.22;;;;;;;2.34;86.01;92691.44;517576;28;801;-50
2023/04/15 00:29:50;;;;;;;6.10;4.55;;;;;;;2.37;85.67;92695.88;517518;28;848;-52
2023/04/15 00:30:06;;;;;;;8.37;4.30;;;;;;;2.40;85.86;92694.09;517496;28;880;-52
2023/04/15 00:30:22;;;;;;;9.32;4.25;;;;;;;2.43;85.46;92693.81;517320;28;1635;-52
2023/04/15 00:30:38;;;;;;;7.50;4.38;;;;;;;2.47;85.71;92694.25;516610;28;1085;-49
2023/04/15 00:30:53;;;;;;;7.03;4.83;;;;;;;2.47;85.75;92688.78;517141;28;1129;-53
2023/04/15 00:31:09;;;;;;;7.07;5.30;;;;;;;2.50;86.07;92695.22;515433;28;797;-50
2023/04/15 00:31:25;;;;;;;6.95;5.03;;;;;;;2.50;85.65;92695.94;515432;28;869;-50
2023/04/15 00:31:41;;;;;;;7.82;4.75;;;;;;;2.49;85.50;92691.75;515387;28;856;-51
2023/04/15 00:31:56;;;;;;;8.48;5.45;;;;;;;2.42;85.26;92680.69;515463;28;848;-51
2023/04/15 00:32:12;;;;;;;7.38;5.20;;;;;;;2.52;85.27;92693.44;516181;28;797;-50
2023/04/15 00:32:28;;;;;;;7.10;4.87;;;;;;;2.45;85.67;92674.25;517531;28;1134;-51
2023/04/15 00:32:43;;;;;;;7.15;5.30;;;;;;;2.58;85.05;92683.19;515516;28;915;-50
2023/04/15 00:33:01;;;;;;;7.13;5.43;;;;;;;2.59;84.97;92692.88;516441;28;853;-51
2023/04/15 00:33:17;;;;;;;9.38;6.10;;;;;;;2.61;84.84;92689.63;516520;28;1681;-49
2023/04/15 00:33:32;;;;;;;9.95;6.30;;;;;;;2.59;85.31;92694.84;515640;28;905;-51
2023/04/15 00:33:47;;;;;;;8.40;5.77;;;;;;;2.61;84.66;92689.63;515706;28;1008;-52
2023/04/15 00:34:03;;;;;;;8.20;5.65;;;;;;;2.63;85.18;92693.31;517499;28;955;-50
2023/04/15 00:34:19;;;;;;;8.02;5.30;;;;;;;2.65;85.04;92688.06;517688;28;904;-50
2023/04/15 00:34:34;;;;;;;7.67;5.27;;;;;;;2.62;84.65;92694.53;517705;28;851;-50
2023/04/15 00:34:50;;;;;;;8.90;6.05;;;;;;;2.57;84.55;92692.66;515750;28;1738;-51
2023/04/15 00:35:06;;;;;;;10.83;6.70;;;;;;;2.58;84.41;92699.56;515759;28;817;-51
2023/04/15 00:35:22;;;;;;;10.25;6.47;;;;;;;2.37;84.54;92663.19;516144;28;941;-50
2023/04/15 00:35:38;;;;;;;8.80;6.03;;;;;;;2.61;84.72;92690.34;517706;28;1052;-50
2023/04/15 00:35:53;;;;;;;8.27;6.00;;;;;;;2.55;84.20;92692.44;517434;28;853;-50
2023/04/15 00:36:10;;;;;;;8.63;6.15;;;;;;;2.51;84.10;92686.53;515688;28;830;-52
2023/04/15 00:36:25;;;;;;;9.25;6.22;;;;;;;2.53;84.47;92694.94;515641;28;852;-52
2023/04/15 00:36:41;;;;;;;8.03;5.80;;;;;;;2.56;84.15;92693.88;515482;28;813;-51
2023/04/15 00:36:56;;;;;;;7.15;5.35;;;;;;;2.49;84.08;92694.47;516848;28;1055;-53
2023/04/15 00:37:11;;;;;;;8.63;5.27;;;;;;;2.37;84.30;92697.84;517469;28;1166;-50
2023/04/15 00:37:27;;;;;;;8.63;5.03;;;;;;;2.33;84.47;92692.69;516118;28;1642;-50
2023/04/15 00:37:42;;;;;;;7.67;4.50;;;;;;;2.35;84.33;92695.66;516741;28;857;-50
2023/04/15 00:37:58;;;;;;;8.60;4.72;;;;;;;2.35;84.56;92695.66;517985;28;1107;-52
2023/04/15 00:38:14;;;;;;;7.65;4.85;;;;;;;2.35;84.06;92694.91;516489;28;1111;-50
2023/04/15 00:38:29;;;;;;;7.40;4.83;;;;;;;2.21;84.37;92669.56;517930;28;1114;-52
2023/04/15 00:38:44;;;;;;;7.47;4.90;;;;;;;2.37;84.32;92687.69;518477;28;1190;-50
2023/04/15 00:39:01;;;;;;;6.20;4.45;;;;;;;2.41;84.31;92698.28;518534;28;846;-50
2023/04/15 00:39:17;;;;;;;6.85;4.70;;;;;;;2.45;84.35;92698.75;517674;28;847;-50
2023/04/15 00:39:32;;;;;;;6.60;4.63;;;;;;;2.48;84.62;92698.44;516487;28;885;-49
2023/04/15 00:39:48;;;;;;;6.30;4.22;;;;;;;2.54;84.63;92695.66;515637;28;1008;-51
2023/04/15 00:40:06;;;;;;;6.80;4.67;;;;;;;2.32;84.12;92666.69;517437;28;1497;-50
2023/04/15 00:40:23;;;;;;;7.50;5.13;;;;;;;2.52;84.28;92696.16;517605;28;864;-51
2023/04/15 00:40:39;;;;;;;8.20;5.72;;;;;;;2.52;83.97;92700.88;517636;28;947;-50
2023/04/15 00:40:55;;;;;;;8.33;6.17;;;;;;;2.42;84.40;92683.44;517234;28;1368;-51
2023/04/15 00:41:11;;;;;;;9.60;6.40;;;;;;;2.55;84.19;92700.59;515567;28;968;-53
2023/04/15 00:41:26;;;;;;;13.70;7.63;;;;;;;2.59;83.99;92701.03;519512;28;1169;-51
2023/04/15 00:41:42;;;;;;;14.90;8.70;;;;;;;2.62;83.81;92707.44;519294;28;891;-50
2023/04/15 00:41:57;;;;;;;13.18;8.45;;;;;;;2.65;84.14;92709.88;517292;28;860;-53
2023/04/15 00:42:13;;;;;;;12.23;8.17;;;;;;;2.65;83.75;92696.25;517422;28;797;-50
2023/04/15 00:42:28;;;;;;;12.32;8.27;;;;;;;2.72;83.93;92706.56;515263;28;1533;-51
2023/04/15 00:42:44;;;;;;;13.87;8.60;;;;;;;2.75;83.96;92705.50;515239;28;849;-50
2023/04/15 00:43:00;;;;;;;14.80;8.75;;;;;;;2.78;83.39;92707.22;515052;28;821;-53
2023/04/15 00:43:15;;;;;;;13.80;8.93;;;;;;;2.77;83.25;92705.72;515252;28;1081;-50
2023/04/15 00:43:30;;;;;;;13.65;8.80;;;;;;;2.78;83.48;92709.19;513339;28;805;-50
2023/04/15 00:43:46;;;;;;;15.30;9.00;;;;;;;2.79;83.20;92703.25;511360;29;896;-52
2023/04/15 00:44:01;;;;;;;17.43;9.27;;;;;;;2.81;82.88;92714.38;511332;28;1515;-50
2023/04/15 00:44:17;;;;;;;15.38;9.23;;;;;;;2.85;82.61;92705.88;511689;28;1009;-51
2023/04/15 00:44:33;;;;;;;14.13;9.88;;;;;;;2.77;82.33;92694.13;511872;28;872;-54
2023/04/15 00:44:48;;;;;;;15.00;10.60;;;;;;;2.87;82.22;92709.56;513933;28;838;-50
2023/04/15 00:45:05;;;;;;;15.00;9.67;;;;;;;2.87;81.49;92706.84;515381;28;790;-50
2023/04/15 00:45:21;;;;;;;16.23;10.05;;;;;;;2.86;81.39;92704.63;516308;28;887;-51
2023/04/15 00:45:37;;;;;;;16.90;11.13;;;;;;;2.89;81.35;92703.59;517744;28;1256;-49
2023/04/15 00:45:53;;;;;;;17.30;11.57;;;;;;;2.92;81.30;92708.03;517818;28;1138;-51
2023/04/15 00:46:09;;;;;;;18.80;12.15;;;;;;;2.92;80.88;92714.19;517809;28;864;-49
2023/04/15 00:46:26;;;;;;;18.90;12.02;;;;;;;2.85;81.04;92716.78;515956;28;1652;-49
2023/04/15 00:46:42;;;;;;;18.02;11.48;;;;;;;2.79;81.23;92708.69;515913;28;961;-50
2023/04/15 00:46:59;;;;;;;16.95;10.25;;;;;;;2.80;81.18;92712.16;516532;28;2002;-48
2023/04/15 00:47:15;;;;;;;18.27;10.30;;;;;;;2.80;80.88;92707.44;516960;28;1645;-49
2023/04/15 00:47:30;;;;;;;18.65;10.30;;;;;;;2.84;80.89;92710.59;515529;28;1362;-49
2023/04/15 00:47:46;;;;;;;17.40;10.40;;;;;;;2.87;81.11;92712.31;517038;28;1447;-49
2023/04/15 00:48:02;;;;;;;19.48;12.07;;;;;;;2.90;81.06;92716.69;517934;28;789;-50
2023/04/15 00:48:17;;;;;;;21.48;13.05;;;;;;;2.92;81.00;92711.47;519807;28;1388;-52
2023/04/15 00:48:33;;;;;;;20.73;12.93;;;;;;;2.94;80.85;92713.69;520041;28;1125;-50
2023/04/15 00:48:49;;;;;;;18.50;12.30;;;;;;;2.96;80.87;92711.94;519761;28;1090;-51
2023/04/15 00:49:05;;;;;;;18.35;12.52;;;;;;;2.95;80.76;92710.44;515855;28;885;-50
2023/04/15 00:49:20;;;;;;;21.98;13.27;;;;;;;3.01;80.72;92710.38;515884;28;851;-51
2023/04/15 00:49:36;;;;;;;26.47;15.23;;;;;;;3.03;80.66;92714.03;514498;28;1263;-51
2023/04/15 00:49:51;;;;;;;40.75;22.20;;;;;;;3.06;80.45;92713.00;515382;28;1742;-50
2023/04/15 00:50:07;;;;;;;50.03;27.27;;;;;;;3.08;80.50;92715.97;514620;28;830;-49
2023/04/15 00:50:23;;;;;;;46.08;25.58;;;;;;;3.01;80.17;92716.56;514376;28;1171;-50
2023/04/15 00:50:38;;;;;;;39.10;22.38;;;;;;;2.89;80.40;92715.25;513999;28;857;-50
2023/04/15 00:50:53;;;;;;;38.93;22.97;;;;;;;2.83;80.71;92714.59;515850;28;1080;-49
2023/04/15 00:51:09;;;;;;;70.53;36.60;;;;;;;2.76;80.36;92719.88;517919;28;844;-49
2023/04/15 00:51:24;;;;;;;92.80;46.60;;;;;;;2.73;80.19;92715.47;517847;28;1549;-50
2023/04/15 00:51:40;;;;;;;100.10;49.83;;;;;;;2.72;80.52;92722.91;518038;28;814;-49
2023/04/15 00:51:56;;;;;;;109.55;54.05;;;;;;;2.70;80.90;92719.97;517858;28;1111;-49
2023/04/15 00:52:12;;;;;;;103.43;50.57;;;;;;;2.71;80.94;92723.41;518146;28;887;-49
2023/04/15 00:52:27;;;;;;;93.25;46.40;;;;;;;2.72;80.69;92716.72;518174;28;912;-49
2023/04/15 00:52:42;;;;;;;86.80;44.63;;;;;;;2.73;81.23;92718.94;516197;28;1667;-50
2023/04/15 00:52:58;;;;;;;82.97;43.70;;;;;;;2.75;80.60;92716.41;517233;28;1012;-50
2023/04/15 00:53:13;;;;;;;74.32;39.58;;;;;;;2.75;80.39;92721.88;516310;28;1360;-49
2023/04/15 00:53:28;;;;;;;65.57;33.87;;;;;;;2.78;80.75;92720.84;517901;28;1580;-49
2023/04/15 00:53:44;;;;;;;57.27;30.97;;;;;;;2.80;80.64;92723.06;517967;28;947;-50
2023/04/15 00:53:59;;;;;;;50.47;28.70;;;;;;;2.82;81.06;92724.00;518331;28;1372;-49
2023/04/15 00:54:15;;;;;;;42.67;25.60;;;;;;;2.87;80.70;92719.75;520183;28;919;-50
2023/04/15 00:54:30;;;;;;;41.05;24.17;;;;;;;2.90;81.03;92724.16;519418;28;1265;-49
2023/04/15 00:54:45;;;;;;;40.20;22.40;;;;;;;2.85;80.81;92709.34;518157;28;815;-50
2023/04/15 00:55:03;;;;;;;32.50;19.63;;;;;;;2.95;81.13;92724.06;517198;28;1174;-51
2023/04/15 00:55:19;;;;;;;30.92;18.23;;;;;;;2.99;80.82;92723.78;517102;28;907;-50
2023/04/15 00:55:35;;;;;;;31.63;18.33;;;;;;;3.02;80.62;92718.03;515193;28;897;-52
2023/04/15 00:55:50;;;;;;;30.67;18.85;;;;;;;3.05;80.81;92721.72;515840;28;1167;-49
2023/04/15 00:56:06;;;;;;;31.27;19.23;;;;;;;3.05;80.56;92727.88;514273;28;920;-50
2023/04/15 00:56:23;;;;;;;32.72;19.05;;;;;;;3.06;80.06;92720.44;513356;28;940;-50
2023/04/15 00:56:38;;;;;;;32.17;18.48;;;;;;;3.00;80.46;92714.34;511983;29;814;-50
2023/04/15 00:56:55;;;;;;;30.90;18.58;;;;;;;3.07;80.54;92719.94;512520;28;954;-49
2023/04/15 00:57:10;;;;;;;33.67;18.83;;;;;;;3.01;80.21;92719.28;512817;28;1015;-51
2023/04/15 00:57:27;;;;;;;32.50;18.47;;;;;;;3.11;79.98;92730.56;515903;28;1031;-49
2023/04/15 00:57:43;;;;;;;30.30;17.98;;;;;;;3.12;80.27;92723.13;515848;28;817;-51
2023/04/15 00:57:58;;;;;;;30.67;17.88;;;;;;;3.13;80.25;92722.59;516286;28;789;-49
2023/04/15 00:58:14;;;;;;;30.90;17.87;;;;;;;3.14;79.62;92728.78;518028;28;840;-49
2023/04/15 00:58:30;;;;;;;29.52;17.52;;;;;;;3.15;79.90;92724.78;517898;28;944;-50
2023/04/15 00:58:46;;;;;;;28.30;17.37;;;;;;;3.15;79.68;92727.50;517983;28;882;-52
2023/04/15 00:59:01;;;;;;;26.88;17.15;;;;;;;3.20;79.73;92729.44;515756;28;1541;-52
2023/04/15 00:59:18;;;;;;;26.80;17.40;;;;;;;3.20;79.66;92726.72;513986;28;951;-50
2023/04/15 00:59:35;;;;;;;28.80;18.33;;;;;;;3.10;79.19;92728.34;513068;28;1739;-50
2023/04/15 00:59:51;;;;;;;29.83;18.27;;;;;;;3.08;79.57;92720.66;515804;28;834;-50
2023/04/15 01:00:07;;;;;;;30.50;17.60;;;;;;;3.03;79.16;92722.22;515546;28;985;-51
2023/04/15 01:00:23;;;;;;;32.22;19.05;;;;;;;3.03;79.30;92730.41;515988;28;871;-49
2023/04/15 01:00:39;;;;;;;31.60;19.63;;;;;;;3.00;79.16;92727.97;513960;28;862;-49
2023/04/15 01:00:55;;;;;;;31.83;19.20;;;;;;;3.00;79.72;92727.97;515668;28;977;-49
2023/04/15 01:01:10;;;;;;;31.63;18.73;;;;;;;3.02;79.42;92726.22;513891;28;1254;-50
2023/04/15 01:01:26;;;;;;;31.90;18.33;;;;;;;3.04;79.67;92726.44;513869;28;923;-48
2023/04/15 01:01:42;;;;;;;32.45;18.38;;;;;;;3.04;79.43;92726.44;513784;28;867;-50
2023/04/15 01:01:57;;;;;;;30.38;18.27;;;;;;;3.04;79.11;92725.69;513844;28;855;-50
2023/04/15 01:02:13;;;;;;;27.08;17.48;;;;;;;2.84;79.18;92696.97;513529;28;1759;-48
2023/04/15 01:02:30;;;;;;;28.02;18.00;;;;;;;3.08;78.98;92731.56;513449;28;813;-50
2023/04/15 01:02:46;;;;;;;31.42;18.40;;;;;;;2.92;79.34;92730.56;516510;28;1238;-49
2023/04/15 01:03:02;;;;;;;31.73;18.48;;;;;;;2.86;79.36;92729.91;517692;28;804;-49
2023/04/15 01:03:17;;;;;;;31.35;18.17;;;;;;;2.80;79.08;92731.22;518413;28;809;-50
2023/04/15 01:03:33;;;;;;;33.50;18.47;;;;;;;2.80;79.13;92729.25;519786;28;1304;-52
2023/04/15 01:03:50;;;;;;;33.67;19.50;;;;;;;2.84;79.37;92735.13;519477;28;1414;-50
2023/04/15 01:04:05;;;;;;;33.22;19.88;;;;;;;2.88;79.59;92735.56;517910;28;1696;-48
2023/04/15 01:04:21;;;;;;;35.72;21.00;;;;;;;2.91;79.34;92729.09;519616;28;2638;-51
2023/04/15 01:04:37;;;;;;;34.77;20.33;;;;;;;2.84;79.44;92718.78;520063;28;1087;-48
2023/04/15 01:04:52;;;;;;;29.52;18.13;;;;;;;2.73;79.46;92702.56;519011;28;1631;-51
2023/04/15 01:05:08;;;;;;;25.15;15.40;;;;;;;2.95;79.20;92731.50;516320;28;1470;-48
2023/04/15 01:05:23;;;;;;;20.97;12.80;;;;;;;2.96;79.16;92733.75;516451;28;781;-49
2023/04/15 01:05:39;;;;;;;18.65;11.25;;;;;;;2.95;79.03;92737.72;515772;28;883;-49
2023/04/15 01:05:57;;;;;;;16.83;10.63;;;;;;;2.97;78.83;92737.94;516453;28;1079;-49
2023/04/15 01:06:13;;;;;;;15.07;10.35;;;;;;;2.99;78.78;92740.88;518455;28;1272;-50
2023/04/15 01:06:29;;;;;;;17.40;10.80;;;;;;;2.98;78.98;92735.94;519934;28;844;-49
2023/04/15 01:06:45;;;;;;;16.20;10.57;;;;;;;3.03;78.93;92741.31;519776;28;924;-49
2023/04/15 01:07:01;;;;;;;15.80;10.57;;;;;;;3.04;78.89;92737.34;517927;28;1918;-50
2023/04/15 01:07:16;;;;;;;16.40;9.77;;;;;;;3.08;78.60;92737.03;517785;28;1165;-51
2023/04/15 01:07:32;;;;;;;15.18;9.15;;;;;;;3.10;78.73;92742.00;517828;28;809;-50
2023/04/15 01:07:47;;;;;;;15.80;9.97;;;;;;;2.99;78.52;92724.50;517835;28;1135;-49
2023/04/15 01:08:03;;;;;;;15.77;10.48;;;;;;;3.10;78.62;92739.25;517947;28;872;-52
2023/04/15 01:08:18;;;;;;;16.10;10.07;;;;;;;3.05;78.47;92733.34;517941;28;1056;-49
2023/04/15 01:08:34;;;;;;;16.55;9.60;;;;;;;2.95;78.89;92734.25;517989;28;876;-51
2023/04/15 01:08:49;;;;;;;16.83;10.20;;;;;;;2.78;78.80;92731.75;517914;28;887;-49
2023/04/15 01:09:05;;;;;;;18.23;11.40;;;;;;;2.77;79.28;92730.25;517960;28;902;-50
2023/04/15 01:09:21;;;;;;;19.90;11.97;;;;;;;2.72;79.03;92735.81;517903;28;1344;-49
2023/04/15 01:09:36;;;;;;;19.92;11.93;;;;;;;2.62;79.81;92735.41;516814;28;1006;-50
2023/04/15 01:09:52;;;;;;;19.23;12.17;;;;;;;2.53;79.61;92735.81;516977;28;845;-50
2023/04/15 01:10:07;;;;;;;19.45;12.43;;;;;;;2.50;80.34;92730.63;517994;28;813;-49
2023/04/15 01:10:23;;;;;;;19.70;12.18;;;;;;;2.48;80.01;92730.41;517905;28;852;-50
2023/04/15 01:10:38;;;;;;;19.17;12.00;;;;;;;2.53;80.55;92732.34;516821;28;807;-49
2023/04/15 01:10:58;;;;;;;17.85;11.98;;;;;;;2.56;80.57;92732.03;516525;28;1130;-49
2023/04/15 01:11:14;;;;;;;20.23;13.30;;;;;;;2.55;80.50;92736.03;515845;28;938;-49
2023/04/15 01:11:31;;;;;;;20.92;13.70;;;;;;;2.52;80.57;92731.59;517946;28;1328;-49
2023/04/15 01:11:47;;;;;;;21.10;13.70;;;;;;;2.53;81.00;92733.06;519669;28;1297;-49
2023/04/15 01:12:03;;;;;;;21.80;13.98;;;;;;;2.47;80.83;92728.94;518334;28;1621;-48
2023/04/15 01:12:19;;;;;;;22.67;14.38;;;;;;;2.42;81.46;92724.28;518246;28;1142;-48
2023/04/15 01:12:36;;;;;;;22.33;14.15;;;;;;;2.28;80.86;92726.19;517897;28;837;-50
2023/04/15 01:12:52;;;;;;;22.90;14.30;;;;;;;2.26;80.96;92728.69;517794;28;1016;-49
2023/04/15 01:13:08;;;;;;;22.40;13.70;;;;;;;2.23;81.59;92727.00;517775;28;810;-50
2023/04/15 01:13:23;;;;;;;25.58;14.52;;;;;;;2.11;81.93;92723.66;517697;28;847;-48
2023/04/15 01:13:39;;;;;;;25.73;15.07;;;;;;;2.08;81.76;92723.94;517771;28;1403;-48
2023/04/15 01:13:58;;;;;;;22.98;14.90;;;;;;;1.97;82.19;92716.59;519286;28;879;-50
2023/04/15 01:14:15;;;;;;;21.95;14.68;;;;;;;2.04;82.43;92723.47;515832;28;1010;-48
2023/04/15 01:14:30;;;;;;;22.58;14.63;;;;;;;2.02;82.50;92723.25;515792;28;1154;-50
2023/04/15 01:14:46;;;;;;;26.02;15.43;;;;;;;1.89;82.62;92706.81;513748;28;979;-49
2023/04/15 01:15:01;;;;;;;24.43;14.37;;;;;;;2.04;82.69;92721.50;514562;28;916;-49
2023/04/15 01:15:17;;;;;;;19.88;12.25;;;;;;;2.11;83.00;92725.63;516551;28;1444;-49
2023/04/15 01:15:35;;;;;;;19.97;12.60;;;;;;;2.15;82.60;92717.91;517706;28;773;-49
2023/04/15 01:15:51;;;;;;;19.05;12.25;;;;;;;2.20;82.35;92728.00;516986;28;1424;-49
2023/04/15 01:16:07;;;;;;;16.88;11.27;;;;;;;2.14;82.77;92708.28;517754;28;1058;-49
2023/04/15 01:16:23;;;;;;;17.63;11.27;;;;;;;2.25;82.64;92725.22;517781;28;865;-48
2023/04/15 01:16:38;;;;;;;18.70;11.50;;;;;;;2.23;82.64;92724.28;517841;28;930;-49